createdAt,value
2018-04-02T00:00:24.890Z,1013.41
2018-04-02T00:01:46.493Z,1013.4
2018-04-02T00:03:08.462Z,1013.39
2018-04-02T00:04:30.081Z,1013.41
2018-04-02T00:05:52.162Z,1013.41
2018-04-02T00:07:13.760Z,1013.36
2018-04-02T00:08:35.370Z,1013.38
2018-04-02T00:09:57.679Z,1013.41
2018-04-02T00:11:19.861Z,1013.39
2018-04-02T00:12:41.591Z,1013.39
2018-04-02T00:14:03.841Z,1013.34
2018-04-02T00:15:25.711Z,1013.38
2018-04-02T00:16:47.782Z,1013.37
2018-04-02T00:18:09.928Z,1013.35
2018-04-02T00:19:31.272Z,1013.37
2018-04-02T00:20:52.870Z,1013.38
2018-04-02T00:22:14.512Z,1013.35
2018-04-02T00:23:36.181Z,1013.36
2018-04-02T00:24:57.827Z,1013.34
2018-04-02T00:26:19.522Z,1013.32
2018-04-02T00:27:41.511Z,1013.34
2018-04-02T00:29:03.403Z,1013.31
2018-04-02T00:30:25.284Z,1013.34
2018-04-02T00:31:46.892Z,1013.24
2018-04-02T00:33:08.298Z,1013.28
2018-04-02T00:34:30.072Z,1013.32
2018-04-02T00:35:51.952Z,1013.3
2018-04-02T00:37:14.209Z,1013.31
2018-04-02T00:38:36.317Z,1013.31
2018-04-02T00:39:58.207Z,1013.31
2018-04-02T00:41:20.120Z,1013.29
2018-04-02T00:42:41.451Z,1013.33
2018-04-02T00:44:03.630Z,1013.28
2018-04-02T00:45:24.994Z,1013.3
2018-04-02T00:46:46.911Z,1013.32
2018-04-02T00:48:08.504Z,1013.3
2018-04-02T00:49:30.089Z,1013.33
2018-04-02T00:50:51.450Z,1013.29
2018-04-02T00:52:13.042Z,1013.29
2018-04-02T00:53:34.933Z,1013.3
2018-04-02T00:54:56.610Z,1013.3
2018-04-02T00:56:18.746Z,1013.32
2018-04-02T00:57:40.932Z,1013.3
2018-04-02T00:59:02.275Z,1013.35
2018-04-02T01:00:24.260Z,1013.34
2018-04-02T01:01:46.191Z,1013.36
2018-04-02T01:03:07.521Z,1013.34
2018-04-02T01:04:29.130Z,1013.38
2018-04-02T01:05:50.882Z,1013.35
2018-04-02T01:07:12.776Z,1013.34
2018-04-02T01:08:34.651Z,1013.38
2018-04-02T01:09:56.280Z,1013.35
2018-04-02T01:11:17.938Z,1013.37
2018-04-02T01:12:39.621Z,1013.33
2018-04-02T01:14:01.230Z,1013.34
2018-04-02T01:15:23.118Z,1013.34
2018-04-02T01:16:45.024Z,1013.39
2018-04-02T01:18:06.655Z,1013.36
2018-04-02T01:19:28.296Z,1013.39
2018-04-02T01:20:49.640Z,1013.41
2018-04-02T01:22:10.991Z,1013.42
2018-04-02T01:23:32.591Z,1013.41
2018-04-02T01:24:54.209Z,1013.37
2018-04-02T01:26:15.833Z,1013.39
2018-04-02T01:27:37.975Z,1013.37
2018-04-02T01:28:59.647Z,1013.36
2018-04-02T01:30:21.565Z,1013.36
2018-04-02T01:31:43.450Z,1013.35
2018-04-02T01:33:05.323Z,1013.39
2018-04-02T01:34:26.760Z,1013.36
2018-04-02T01:35:48.640Z,1013.35
2018-04-02T01:37:10.258Z,1013.32
2018-04-02T01:38:31.612Z,1013.36
2018-04-02T01:39:52.971Z,1013.33
2018-04-02T01:41:14.362Z,1013.28
2018-04-02T01:42:36.018Z,1013.28
2018-04-02T01:43:57.651Z,1013.28
2018-04-02T01:45:19.790Z,1013.29
2018-04-02T01:46:41.678Z,1013.27
2018-04-02T01:48:03.310Z,1013.25
2018-04-02T01:49:24.912Z,1013.28
2018-04-02T01:50:46.922Z,1013.26
2018-04-02T01:52:08.791Z,1013.18
2018-04-02T01:53:30.495Z,1013.21
2018-04-02T01:54:52.334Z,1013.15
2018-04-02T01:56:14.295Z,1013.17
2018-04-02T01:57:36.196Z,1013.19
2018-04-02T01:58:57.861Z,1013.14
2018-04-02T02:00:19.461Z,1013.14
2018-04-02T02:01:41.702Z,1013.12
2018-04-02T02:03:03.366Z,1013.14
2018-04-02T02:04:25.384Z,1013.13
2018-04-02T02:05:46.710Z,1013.15
2018-04-02T02:07:08.592Z,1013.15
2018-04-02T02:08:30.200Z,1013.17
2018-04-02T02:09:51.841Z,1013.18
2018-04-02T02:11:13.726Z,1013.16
2018-04-02T02:12:35.375Z,1013.26
2018-04-02T02:13:57.380Z,1013.21
2018-04-02T02:15:19.282Z,1013.27
2018-04-02T02:16:41.410Z,1013.26
2018-04-02T02:18:02.546Z,1013.27
2018-04-02T02:19:24.461Z,1013.2
2018-04-02T02:20:46.081Z,1013.22
2018-04-02T02:22:07.991Z,1013.2
2018-04-02T02:23:29.891Z,1013.19
2018-04-02T02:24:50.972Z,1013.14
2018-04-02T02:26:13.172Z,1013.14
2018-04-02T02:27:35.047Z,1013.13
2018-04-02T02:28:56.518Z,1013.13
2018-04-02T02:30:18.631Z,1013.1
2018-04-02T02:31:39.724Z,1013.09
2018-04-02T02:33:01.861Z,1013.14
2018-04-02T02:34:23.472Z,1013.11
2018-04-02T02:35:44.910Z,1013.11
2018-04-02T02:37:06.330Z,1013.08
2018-04-02T02:38:28.262Z,1013.04
2018-04-02T02:39:50.255Z,1013.06
2018-04-02T02:41:11.325Z,1013.01
2018-04-02T02:42:33.220Z,1013.01
2018-04-02T02:43:55.311Z,1012.99
2018-04-02T02:45:16.945Z,1012.99
2018-04-02T02:46:39.143Z,1012.99
2018-04-02T02:48:01.052Z,1013.03
2018-04-02T02:49:22.658Z,1012.96
2018-04-02T02:50:44.259Z,1012.94
2018-04-02T02:52:05.856Z,1012.94
2018-04-02T02:53:27.209Z,1012.89
2018-04-02T02:54:48.833Z,1012.89
2018-04-02T02:56:10.451Z,1012.89
2018-04-02T02:57:32.053Z,1012.89
2018-04-02T02:58:53.934Z,1012.89
2018-04-02T03:00:16.091Z,1012.89
2018-04-02T03:01:38.061Z,1012.86
2018-04-02T03:02:59.982Z,1012.85
2018-04-02T03:04:21.723Z,1012.84
2018-04-02T03:05:43.367Z,1012.83
2018-04-02T03:07:05.278Z,1012.79
2018-04-02T03:08:26.860Z,1012.79
2018-04-02T03:09:48.473Z,1012.8
2018-04-02T03:11:10.326Z,1012.81
2018-04-02T03:12:31.768Z,1012.85
2018-04-02T03:13:53.488Z,1012.83
2018-04-02T03:15:15.200Z,1012.82
2018-04-02T03:16:36.561Z,1012.76
2018-04-02T03:17:58.727Z,1012.82
2018-04-02T03:19:20.071Z,1012.8
2018-04-02T03:20:41.737Z,1012.78
2018-04-02T03:22:03.603Z,1012.82
2018-04-02T03:23:25.194Z,1012.78
2018-04-02T03:24:46.551Z,1012.76
2018-04-02T03:26:08.690Z,1012.82
2018-04-02T03:27:30.370Z,1012.77
2018-04-02T03:28:51.531Z,1012.75
2018-04-02T03:30:12.851Z,1012.78
2018-04-02T03:31:33.935Z,1012.78
2018-04-02T03:32:55.596Z,1012.8
2018-04-02T03:34:16.726Z,1012.79
2018-04-02T03:35:38.057Z,1012.82
2018-04-02T03:36:59.661Z,1012.78
2018-04-02T03:38:20.758Z,1012.77
2018-04-02T03:39:42.080Z,1012.71
2018-04-02T03:41:03.791Z,1012.79
2018-04-02T03:42:25.137Z,1012.76
2018-04-02T03:43:46.476Z,1012.81
2018-04-02T03:45:08.067Z,1012.8
2018-04-02T03:46:29.930Z,1012.81
2018-04-02T03:47:51.031Z,1012.8
2018-04-02T03:49:12.373Z,1012.86
2018-04-02T03:50:34.257Z,1012.83
2018-04-02T03:51:55.880Z,1012.78
2018-04-02T03:53:17.520Z,1012.81
2018-04-02T03:54:39.250Z,1012.82
2018-04-02T03:56:00.714Z,1012.84
2018-04-02T03:57:22.143Z,1012.82
2018-04-02T03:58:44.000Z,1012.79
2018-04-02T04:00:05.611Z,1012.81
2018-04-02T04:01:27.234Z,1012.79
2018-04-02T04:02:49.364Z,1012.8
2018-04-02T04:04:11.008Z,1012.81
2018-04-02T04:05:32.620Z,1012.78
2018-04-02T04:06:54.240Z,1012.81
2018-04-02T04:08:15.837Z,1012.74
2018-04-02T04:09:37.444Z,1012.76
2018-04-02T04:10:59.766Z,1012.75
2018-04-02T04:12:21.889Z,1012.76
2018-04-02T04:13:43.497Z,1012.71
2018-04-02T04:15:05.254Z,1012.7
2018-04-02T04:16:26.860Z,1012.72
2018-04-02T04:17:48.245Z,1012.68
2018-04-02T04:19:09.439Z,1012.73
2018-04-02T04:20:31.220Z,1012.71
2018-04-02T04:21:53.203Z,1012.73
2018-04-02T04:23:15.137Z,1012.72
2018-04-02T04:24:36.779Z,1012.7
2018-04-02T04:25:58.390Z,1012.7
2018-04-02T04:27:20.070Z,1012.69
2018-04-02T04:28:42.291Z,1012.67
2018-04-02T04:30:04.441Z,1012.7
2018-04-02T04:31:25.803Z,1012.7
2018-04-02T04:32:47.169Z,1012.62
2018-04-02T04:34:08.520Z,1012.66
2018-04-02T04:35:30.269Z,1012.7
2018-04-02T04:36:51.637Z,1012.72
2018-04-02T04:38:13.273Z,1012.74
2018-04-02T04:39:35.237Z,1012.77
2018-04-02T04:40:56.839Z,1012.73
2018-04-02T04:42:18.194Z,1012.76
2018-04-02T04:43:39.325Z,1012.77
2018-04-02T04:45:00.920Z,1012.79
2018-04-02T04:46:22.789Z,1012.75
2018-04-02T04:47:44.403Z,1012.78
2018-04-02T04:49:06.071Z,1012.8
2018-04-02T04:50:27.710Z,1012.81
2018-04-02T04:51:49.711Z,1012.78
2018-04-02T04:53:11.055Z,1012.75
2018-04-02T04:54:32.914Z,1012.72
2018-04-02T04:55:54.575Z,1012.7
2018-04-02T04:57:15.949Z,1012.65
2018-04-02T04:58:37.561Z,1012.63
2018-04-02T04:59:59.280Z,1012.66
2018-04-02T05:01:21.190Z,1012.63
2018-04-02T05:02:42.557Z,1012.67
2018-04-02T05:04:03.661Z,1012.67
2018-04-02T05:05:25.546Z,1012.67
2018-04-02T05:06:47.153Z,1012.68
2018-04-02T05:08:08.789Z,1012.71
2018-04-02T05:09:30.750Z,1012.7
2018-04-02T05:10:52.100Z,1012.68
2018-04-02T05:12:14.010Z,1012.71
2018-04-02T05:13:35.652Z,1012.67
2018-04-02T05:14:57.292Z,1012.67
2018-04-02T05:16:19.429Z,1012.66
2018-04-02T05:17:40.794Z,1012.7
2018-04-02T05:19:02.501Z,1012.74
2018-04-02T05:20:24.376Z,1012.76
2018-04-02T05:21:46.242Z,1012.78
2018-04-02T05:23:08.199Z,1012.76
2018-04-02T05:24:29.908Z,1012.76
2018-04-02T05:25:51.050Z,1012.79
2018-04-02T05:27:12.677Z,1012.73
2018-04-02T05:28:34.679Z,1012.74
2018-04-02T05:29:56.029Z,1012.74
2018-04-02T05:31:17.899Z,1012.79
2018-04-02T05:32:39.505Z,1012.83
2018-04-02T05:34:00.907Z,1012.84
2018-04-02T05:35:22.788Z,1012.85
2018-04-02T05:36:44.399Z,1012.81
2018-04-02T05:38:06.259Z,1012.84
2018-04-02T05:39:28.389Z,1012.83
2018-04-02T05:40:50.293Z,1012.86
2018-04-02T05:42:11.909Z,1012.86
2018-04-02T05:43:33.250Z,1012.85
2018-04-02T05:44:54.877Z,1012.83
2018-04-02T05:46:16.321Z,1012.82
2018-04-02T05:47:37.755Z,1012.83
2018-04-02T05:48:59.623Z,1012.82
2018-04-02T05:50:21.769Z,1012.85
2018-04-02T05:51:43.185Z,1012.87
2018-04-02T05:53:04.839Z,1012.87
2018-04-02T05:54:26.173Z,1012.89
2018-04-02T05:55:48.039Z,1012.87
2018-04-02T05:57:09.914Z,1012.93
2018-04-02T05:58:32.092Z,1012.96
2018-04-02T05:59:53.970Z,1013
2018-04-02T06:01:15.674Z,1012.94
2018-04-02T06:02:37.288Z,1012.99
2018-04-02T06:03:58.390Z,1013.05
2018-04-02T06:05:20.051Z,1013.09
2018-04-02T06:06:41.419Z,1013.1
2018-04-02T06:08:03.420Z,1013.07
2018-04-02T06:09:25.061Z,1013.06
2018-04-02T06:10:46.729Z,1013.07
2018-04-02T06:12:08.626Z,1013.04
2018-04-02T06:13:29.740Z,1013.11
2018-04-02T06:14:52.198Z,1013.14
2018-04-02T06:16:14.398Z,1013.16
2018-04-02T06:17:35.779Z,1013.21
2018-04-02T06:18:57.699Z,1013.17
2018-04-02T06:20:19.591Z,1013.17
2018-04-02T06:21:41.299Z,1013.18
2018-04-02T06:23:03.185Z,1013.17
2018-04-02T06:24:25.429Z,1013.13
2018-04-02T06:25:46.589Z,1013.14
2018-04-02T06:27:08.589Z,1013.18
2018-04-02T06:28:30.461Z,1013.21
2018-04-02T06:29:52.366Z,1013.23
2018-04-02T06:31:13.981Z,1013.21
2018-04-02T06:32:35.606Z,1013.22
2018-04-02T06:33:57.492Z,1013.24
2018-04-02T06:35:18.702Z,1013.23
2018-04-02T06:36:40.914Z,1013.22
2018-04-02T06:38:02.934Z,1013.25
2018-04-02T06:39:24.800Z,1013.27
2018-04-02T06:40:46.479Z,1013.35
2018-04-02T06:42:08.647Z,1013.36
2018-04-02T06:43:30.554Z,1013.35
2018-04-02T06:44:52.322Z,1013.32
2018-04-02T06:46:14.354Z,1013.35
2018-04-02T06:47:36.494Z,1013.36
2018-04-02T06:48:58.490Z,1013.4
2018-04-02T06:50:20.374Z,1013.34
2018-04-02T06:51:41.905Z,1013.34
2018-04-02T06:53:03.658Z,1013.33
2018-04-02T06:54:25.608Z,1013.3
2018-04-02T06:55:47.319Z,1013.32
2018-04-02T06:57:09.202Z,1013.3
2018-04-02T06:59:02.459Z,1013.28
2018-04-02T07:00:24.453Z,1013.28
2018-04-02T07:01:46.120Z,1013.27
2018-04-02T07:03:08.051Z,1013.26
2018-04-02T07:04:29.477Z,1013.31
2018-04-02T07:05:51.700Z,1013.25
2018-04-02T07:07:13.330Z,1013.28
2018-04-02T07:08:34.975Z,1013.32
2018-04-02T07:09:56.588Z,1013.27
2018-04-02T07:11:18.255Z,1013.25
2018-04-02T07:12:40.278Z,1013.33
2018-04-02T07:14:01.890Z,1013.33
2018-04-02T07:15:23.538Z,1013.32
2018-04-02T07:16:45.798Z,1013.4
2018-04-02T07:18:07.269Z,1013.4
2018-04-02T07:19:28.961Z,1013.36
2018-04-02T07:20:51.021Z,1013.29
2018-04-02T07:22:12.938Z,1013.31
2018-04-02T07:23:34.279Z,1013.34
2018-04-02T07:24:55.693Z,1013.35
2018-04-02T07:26:17.888Z,1013.34
2018-04-02T07:27:39.389Z,1013.36
2018-04-02T07:29:01.000Z,1013.33
2018-04-02T07:30:23.171Z,1013.3
2018-04-02T07:31:44.772Z,1013.31
2018-04-02T07:33:06.128Z,1013.29
2018-04-02T07:34:27.509Z,1013.29
2018-04-02T07:35:49.412Z,1013.27
2018-04-02T07:37:11.142Z,1013.27
2018-04-02T07:38:33.348Z,1013.3
2018-04-02T07:39:55.021Z,1013.29
2018-04-02T07:41:16.953Z,1013.24
2018-04-02T07:42:38.587Z,1013.25
2018-04-02T07:43:59.939Z,1013.27
2018-04-02T07:45:21.879Z,1013.25
2018-04-02T07:46:43.759Z,1013.21
2018-04-02T07:48:05.710Z,1013.19
2018-04-02T07:49:27.325Z,1013.18
2018-04-02T07:50:48.770Z,1013.19
2018-04-02T07:52:10.400Z,1013.16
2018-04-02T07:53:32.091Z,1013.18
2018-04-02T07:54:53.740Z,1013.16
2018-04-02T07:56:15.736Z,1013.12
2018-04-02T07:57:37.421Z,1013.07
2018-04-02T07:58:59.813Z,1013.1
2018-04-02T08:00:21.741Z,1013.05
2018-04-02T08:01:42.848Z,1013.06
2018-04-02T08:03:04.896Z,1013.03
2018-04-02T08:04:26.342Z,1013.07
2018-04-02T08:05:48.338Z,1013.07
2018-04-02T08:07:10.492Z,1013.05
2018-04-02T08:08:32.388Z,1013.01
2018-04-02T08:09:54.092Z,1013.04
2018-04-02T08:11:16.238Z,1013.02
2018-04-02T08:12:37.866Z,1012.97
2018-04-02T08:14:00.041Z,1012.98
2018-04-02T08:15:21.672Z,1013.01
2018-04-02T08:16:43.557Z,1012.98
2018-04-02T08:18:05.216Z,1013.02
2018-04-02T08:19:26.291Z,1012.98
2018-04-02T08:20:48.451Z,1012.95
2018-04-02T08:22:10.089Z,1013.01
2018-04-02T08:23:31.720Z,1013
2018-04-02T08:24:53.417Z,1012.95
2018-04-02T08:26:15.296Z,1012.95
2018-04-02T08:27:37.495Z,1012.88
2018-04-02T08:28:59.408Z,1012.87
2018-04-02T08:30:20.511Z,1012.92
2018-04-02T08:31:41.886Z,1012.89
2018-04-02T08:33:03.780Z,1012.89
2018-04-02T08:34:25.668Z,1012.88
2018-04-02T08:35:47.088Z,1012.87
2018-04-02T08:37:09.078Z,1012.86
2018-04-02T08:38:30.922Z,1012.86
2018-04-02T08:39:52.826Z,1012.84
2018-04-02T08:41:15.109Z,1012.83
2018-04-02T08:42:37.230Z,1012.83
2018-04-02T08:43:58.338Z,1012.81
2018-04-02T08:45:19.843Z,1012.84
2018-04-02T08:46:41.538Z,1012.84
2018-04-02T08:48:03.161Z,1012.8
2018-04-02T08:49:24.533Z,1012.81
2018-04-02T08:50:46.522Z,1012.79
2018-04-02T08:52:08.146Z,1012.71
2018-04-02T08:53:30.312Z,1012.69
2018-04-02T08:54:52.220Z,1012.67
2018-04-02T08:56:14.127Z,1012.68
2018-04-02T08:57:36.288Z,1012.65
2018-04-02T08:58:58.209Z,1012.64
2018-04-02T09:00:20.097Z,1012.67
2018-04-02T09:01:42.123Z,1012.68
2018-04-02T09:03:04.274Z,1012.65
2018-04-02T09:04:26.190Z,1012.65
2018-04-02T09:05:47.824Z,1012.61
2018-04-02T09:07:09.772Z,1012.58
2018-04-02T09:08:32.018Z,1012.58
2018-04-02T09:09:53.684Z,1012.55
2018-04-02T09:11:15.419Z,1012.54
2018-04-02T09:12:37.765Z,1012.52
2018-04-02T09:13:59.676Z,1012.55
2018-04-02T09:15:21.670Z,1012.53
2018-04-02T09:16:43.583Z,1012.52
2018-04-02T09:18:05.740Z,1012.55
2018-04-02T09:19:27.751Z,1012.49
2018-04-02T09:20:49.664Z,1012.5
2018-04-02T09:22:11.577Z,1012.45
2018-04-02T09:23:33.482Z,1012.46
2018-04-02T09:24:55.401Z,1012.43
2018-04-02T09:26:17.730Z,1012.43
2018-04-02T09:27:39.919Z,1012.45
2018-04-02T09:29:01.814Z,1012.44
2018-04-02T09:30:23.758Z,1012.42
2018-04-02T09:31:45.941Z,1012.39
2018-04-02T09:33:07.838Z,1012.33
2018-04-02T09:34:29.454Z,1012.32
2018-04-02T09:35:51.606Z,1012.25
2018-04-02T09:37:12.973Z,1012.24
2018-04-02T09:38:34.347Z,1012.24
2018-04-02T09:39:55.725Z,1012.25
2018-04-02T09:41:17.600Z,1012.23
2018-04-02T09:42:39.238Z,1012.2
2018-04-02T09:44:01.481Z,1012.18
2018-04-02T09:45:23.655Z,1012.21
2018-04-02T09:46:45.305Z,1012.18
2018-04-02T09:48:07.209Z,1012.17
2018-04-02T09:49:29.764Z,1012.09
2018-04-02T09:50:51.742Z,1012.12
2018-04-02T09:52:13.887Z,1012.09
2018-04-02T09:53:35.534Z,1012.03
2018-04-02T09:54:57.688Z,1012.04
2018-04-02T09:56:19.344Z,1011.98
2018-04-02T09:57:41.594Z,1011.99
2018-04-02T09:59:03.348Z,1011.96
2018-04-02T10:00:25.422Z,1011.94
2018-04-02T10:01:47.057Z,1011.85
2018-04-02T10:03:09.237Z,1011.84
2018-04-02T10:04:31.490Z,1011.89
2018-04-02T10:05:54.102Z,1011.85
2018-04-02T10:07:15.980Z,1011.89
2018-04-02T10:08:37.890Z,1011.88
2018-04-02T10:09:59.898Z,1011.88
2018-04-02T10:11:22.512Z,1011.9
2018-04-02T10:12:44.833Z,1011.95
2018-04-02T10:14:06.760Z,1011.86
2018-04-02T10:15:28.963Z,1011.83
2018-04-02T10:16:51.265Z,1011.86
2018-04-02T10:18:13.220Z,1011.77
2018-04-02T10:19:35.365Z,1011.79
2018-04-02T10:20:57.155Z,1011.78
2018-04-02T10:22:18.844Z,1011.8
2018-04-02T10:23:41.109Z,1011.73
2018-04-02T10:25:03.331Z,1011.76
2018-04-02T10:26:24.702Z,1011.72
2018-04-02T10:27:46.346Z,1011.73
2018-04-02T10:29:08.278Z,1011.7
2018-04-02T10:30:29.750Z,1011.69
2018-04-02T10:31:52.017Z,1011.69
2018-04-02T10:33:14.083Z,1011.74
2018-04-02T10:34:36.253Z,1011.72
2018-04-02T10:35:58.469Z,1011.71
2018-04-02T10:37:20.615Z,1011.65
2018-04-02T10:38:42.509Z,1011.65
2018-04-02T10:40:03.884Z,1011.65
2018-04-02T10:41:26.067Z,1011.72
2018-04-02T10:42:48.056Z,1011.68
2018-04-02T10:44:09.454Z,1011.58
2018-04-02T10:45:30.810Z,1011.61
2018-04-02T10:46:52.974Z,1011.7
2018-04-02T10:48:15.151Z,1011.7
2018-04-02T10:49:37.448Z,1011.57
2018-04-02T10:50:59.776Z,1011.56
2018-04-02T10:52:21.922Z,1011.56
2018-04-02T10:53:44.128Z,1011.56
2018-04-02T10:55:05.821Z,1011.5
2018-04-02T10:56:27.832Z,1011.51
2018-04-02T10:57:49.824Z,1011.46
2018-04-02T10:59:11.734Z,1011.43
2018-04-02T11:00:33.652Z,1011.48
2018-04-02T11:01:55.553Z,1011.49
2018-04-02T11:03:17.234Z,1011.43
2018-04-02T11:04:39.175Z,1011.39
2018-04-02T11:06:01.461Z,1011.39
2018-04-02T11:07:23.136Z,1011.46
2018-04-02T11:08:44.813Z,1011.38
2018-04-02T11:10:06.483Z,1011.41
2018-04-02T11:11:28.108Z,1011.39
2018-04-02T11:12:49.492Z,1011.37
2018-04-02T11:14:11.122Z,1011.37
2018-04-02T11:15:33.306Z,1011.32
2018-04-02T11:16:54.958Z,1011.33
2018-04-02T11:18:16.904Z,1011.35
2018-04-02T11:19:38.804Z,1011.38
2018-04-02T11:21:00.415Z,1011.42
2018-04-02T11:22:22.029Z,1011.34
2018-04-02T11:23:44.050Z,1011.32
2018-04-02T11:25:05.987Z,1011.3
2018-04-02T11:26:28.185Z,1011.31
2018-04-02T11:27:50.380Z,1011.36
2018-04-02T11:29:12.064Z,1011.29
2018-04-02T11:30:34.116Z,1011.26
2018-04-02T11:31:56.632Z,1011.3
2018-04-02T11:33:18.566Z,1011.29
2018-04-02T11:34:40.743Z,1011.22
2018-04-02T11:36:02.734Z,1011.14
2018-04-02T11:37:24.962Z,1011.12
2018-04-02T11:38:46.856Z,1011.14
2018-04-02T11:40:08.751Z,1011.18
2018-04-02T11:41:30.708Z,1011.07
2018-04-02T11:42:52.634Z,1011.06
2018-04-02T11:44:14.543Z,1011.03
2018-04-02T11:45:36.842Z,1011.01
2018-04-02T11:46:58.745Z,1010.93
2018-04-02T11:48:20.660Z,1010.92
2018-04-02T11:49:42.866Z,1010.95
2018-04-02T11:51:04.763Z,1010.9
2018-04-02T11:52:26.458Z,1010.91
2018-04-02T11:53:48.715Z,1010.9
2018-04-02T11:55:10.671Z,1010.83
2018-04-02T11:56:32.653Z,1010.85
2018-04-02T11:57:54.593Z,1010.83
2018-04-02T11:59:16.692Z,1010.81
2018-04-02T12:00:38.634Z,1010.74
2018-04-02T12:02:00.827Z,1010.78
2018-04-02T12:03:23.092Z,1010.7
2018-04-02T12:04:45.061Z,1010.76
2018-04-02T12:06:06.967Z,1010.76
2018-04-02T12:07:28.606Z,1010.76
2018-04-02T12:08:50.761Z,1010.77
2018-04-02T12:10:12.728Z,1010.74
2018-04-02T12:11:34.382Z,1010.74
2018-04-02T12:12:56.042Z,1010.75
2018-04-02T12:14:18.180Z,1010.72
2018-04-02T12:15:40.439Z,1010.7
2018-04-02T12:17:02.614Z,1010.69
2018-04-02T12:18:24.274Z,1010.68
2018-04-02T12:19:46.820Z,1010.62
2018-04-02T12:21:08.989Z,1010.64
2018-04-02T12:22:31.132Z,1010.65
2018-04-02T12:23:53.293Z,1010.65
2018-04-02T12:25:14.937Z,1010.61
2018-04-02T12:26:37.164Z,1010.65
2018-04-02T12:27:59.077Z,1010.66
2018-04-02T12:29:21.002Z,1010.65
2018-04-02T12:30:43.233Z,1010.63
2018-04-02T12:32:05.164Z,1010.62
2018-04-02T12:33:27.533Z,1010.57
2018-04-02T12:34:50.046Z,1010.54
2018-04-02T12:36:11.680Z,1010.55
2018-04-02T12:37:33.642Z,1010.54
2018-04-02T12:38:55.272Z,1010.49
2018-04-02T12:40:16.907Z,1010.47
2018-04-02T12:41:38.828Z,1010.43
2018-04-02T12:43:00.756Z,1010.45
2018-04-02T12:44:22.479Z,1010.42
2018-04-02T12:45:44.904Z,1010.43
2018-04-02T12:47:06.663Z,1010.45
2018-04-02T12:48:28.647Z,1010.39
2018-04-02T12:49:50.585Z,1010.45
2018-04-02T12:51:12.234Z,1010.37
2018-04-02T12:52:34.204Z,1010.4
2018-04-02T12:53:56.102Z,1010.39
2018-04-02T12:55:18.252Z,1010.38
2018-04-02T12:56:40.172Z,1010.38
2018-04-02T12:58:01.792Z,1010.3
2018-04-02T12:59:23.980Z,1010.28
2018-04-02T13:00:45.900Z,1010.23
2018-04-02T13:02:07.864Z,1010.17
2018-04-02T13:03:29.531Z,1010.16
2018-04-02T13:04:51.192Z,1010.15
2018-04-02T13:06:13.344Z,1010.08
2018-04-02T13:07:35.050Z,1010.09
2018-04-02T13:08:57.215Z,1010.04
2018-04-02T13:10:19.480Z,1009.99
2018-04-02T13:11:42.141Z,1010.02
2018-04-02T13:13:05.128Z,1009.98
2018-04-02T13:14:28.414Z,1010
2018-04-02T13:15:54.083Z,1009.94
2018-04-02T13:17:20.309Z,1009.94
2018-04-02T13:18:47.173Z,1009.89
2018-04-02T13:20:13.215Z,1009.91
2018-04-02T13:21:40.689Z,1009.91
2018-04-02T13:23:07.468Z,1009.89
2018-04-02T13:24:36.176Z,1009.85
2018-04-02T13:26:03.408Z,1009.83
2018-04-02T13:27:32.241Z,1009.8
2018-04-02T13:28:56.678Z,1009.77
2018-04-02T13:30:20.923Z,1009.72
2018-04-02T13:31:43.637Z,1009.72
2018-04-02T13:33:06.241Z,1009.63
2018-04-02T13:34:27.906Z,1009.61
2018-04-02T13:35:49.530Z,1009.59
2018-04-02T13:37:11.453Z,1009.53
2018-04-02T13:38:33.373Z,1009.52
2018-04-02T13:39:55.035Z,1009.51
2018-04-02T13:41:17.216Z,1009.49
2018-04-02T13:42:39.459Z,1009.41
2018-04-02T13:44:01.482Z,1009.4
2018-04-02T13:45:23.494Z,1009.41
2018-04-02T13:46:45.682Z,1009.36
2018-04-02T13:48:07.917Z,1009.29
2018-04-02T13:49:30.141Z,1009.26
2018-04-02T13:50:53.712Z,1009.24
2018-04-02T13:52:15.669Z,1009.21
2018-04-02T13:53:37.307Z,1009.12
2018-04-02T13:54:59.538Z,1009.12
2018-04-02T13:56:21.288Z,1009.05
2018-04-02T13:57:43.260Z,1009.07
2018-04-02T13:59:05.513Z,1008.97
2018-04-02T14:00:27.432Z,1008.9
2018-04-02T14:01:49.420Z,1008.91
2018-04-02T14:03:11.047Z,1008.83
2018-04-02T14:04:33.266Z,1008.84
2018-04-02T14:05:55.033Z,1008.88
2018-04-02T14:07:16.932Z,1008.85
2018-04-02T14:08:38.567Z,1008.86
2018-04-02T14:10:00.762Z,1008.8
2018-04-02T14:11:22.597Z,1008.83
2018-04-02T14:12:45.233Z,1008.76
2018-04-02T14:14:06.364Z,1008.76
2018-04-02T14:15:28.269Z,1008.71
2018-04-02T14:16:50.274Z,1008.74
2018-04-02T14:18:12.676Z,1008.7
2018-04-02T14:19:34.423Z,1008.67
2018-04-02T14:20:56.345Z,1008.65
2018-04-02T14:22:17.968Z,1008.67
2018-04-02T14:23:40.157Z,1008.66
2018-04-02T14:25:02.456Z,1008.6
2018-04-02T14:26:24.476Z,1008.59
2018-04-02T14:27:46.463Z,1008.56
2018-04-02T14:29:08.607Z,1008.54
2018-04-02T14:30:30.373Z,1008.51
2018-04-02T14:31:52.004Z,1008.5
2018-04-02T14:33:13.992Z,1008.42
2018-04-02T14:34:35.677Z,1008.44
2018-04-02T14:35:57.658Z,1008.42
2018-04-02T14:37:19.584Z,1008.41
2018-04-02T14:38:41.790Z,1008.45
2018-04-02T14:40:03.861Z,1008.44
2018-04-02T14:41:25.528Z,1008.41
2018-04-02T14:42:47.192Z,1008.4
2018-04-02T14:44:09.143Z,1008.31
2018-04-02T14:45:31.322Z,1008.27
2018-04-02T14:46:53.562Z,1008.24
2018-04-02T14:48:15.465Z,1008.23
2018-04-02T14:49:37.196Z,1008.16
2018-04-02T14:50:58.901Z,1008.22
2018-04-02T14:52:21.136Z,1008.18
2018-04-02T14:53:42.791Z,1008.18
2018-04-02T14:55:04.721Z,1008.15
2018-04-02T14:56:26.635Z,1008.08
2018-04-02T14:57:49.170Z,1008.11
2018-04-02T14:59:11.401Z,1008.06
2018-04-02T15:00:33.325Z,1008.08
2018-04-02T15:01:55.562Z,1008.05
2018-04-02T15:03:17.794Z,1008.06
2018-04-02T15:04:39.973Z,1008.03
2018-04-02T15:06:02.146Z,1008.02
2018-04-02T15:07:23.890Z,1007.96
2018-04-02T15:08:46.112Z,1007.98
2018-04-02T15:10:08.284Z,1007.99
2018-04-02T15:11:30.591Z,1007.92
2018-04-02T15:12:52.794Z,1007.89
2018-04-02T15:14:14.704Z,1007.85
2018-04-02T15:15:36.738Z,1007.86
2018-04-02T15:16:58.674Z,1007.81
2018-04-02T15:18:20.863Z,1007.8
2018-04-02T15:19:42.796Z,1007.74
2018-04-02T15:21:04.982Z,1007.7
2018-04-02T15:22:27.003Z,1007.7
2018-04-02T15:23:48.922Z,1007.64
2018-04-02T15:25:10.292Z,1007.64
2018-04-02T15:26:32.202Z,1007.67
2018-04-02T15:27:54.592Z,1007.57
2018-04-02T15:29:16.864Z,1007.57
2018-04-02T15:30:38.225Z,1007.51
2018-04-02T15:32:00.167Z,1007.5
2018-04-02T15:33:22.089Z,1007.36
2018-04-02T15:34:43.736Z,1007.32
2018-04-02T15:36:05.654Z,1007.31
2018-04-02T15:37:27.552Z,1007.22
2018-04-02T15:38:49.502Z,1007.17
2018-04-02T15:40:11.284Z,1007.15
2018-04-02T15:41:33.652Z,1007.1
2018-04-02T15:42:55.770Z,1007.1
2018-04-02T15:44:17.450Z,1007.04
2018-04-02T15:45:39.640Z,1007.07
2018-04-02T15:47:01.955Z,1007.01
2018-04-02T15:48:24.171Z,1007
2018-04-02T15:49:46.088Z,1006.95
2018-04-02T15:51:08.037Z,1006.94
2018-04-02T15:52:30.196Z,1006.89
2018-04-02T15:53:51.857Z,1006.84
2018-04-02T15:55:13.884Z,1006.89
2018-04-02T15:56:35.800Z,1006.85
2018-04-02T15:57:57.439Z,1006.79
2018-04-02T15:59:19.095Z,1006.81
2018-04-02T16:00:40.973Z,1006.71
2018-04-02T16:02:03.027Z,1006.75
2018-04-02T16:03:24.202Z,1006.74
2018-04-02T16:04:46.242Z,1006.68
2018-04-02T16:06:08.322Z,1006.66
2018-04-02T16:07:30.547Z,1006.65
2018-04-02T16:08:52.471Z,1006.65
2018-04-02T16:10:14.117Z,1006.64
2018-04-02T16:11:36.339Z,1006.65
2018-04-02T16:12:58.263Z,1006.62
2018-04-02T16:14:20.231Z,1006.54
2018-04-02T16:15:42.169Z,1006.57
2018-04-02T16:17:04.265Z,1006.52
2018-04-02T16:18:26.362Z,1006.43
2018-04-02T16:19:48.274Z,1006.43
2018-04-02T16:21:09.944Z,1006.44
2018-04-02T16:22:31.370Z,1006.42
2018-04-02T16:23:53.165Z,1006.33
2018-04-02T16:25:15.197Z,1006.32
2018-04-02T16:26:37.192Z,1006.27
2018-04-02T16:27:58.898Z,1006.28
2018-04-02T16:29:20.849Z,1006.29
2018-04-02T16:30:42.801Z,1006.2
2018-04-02T16:32:04.535Z,1006.26
2018-04-02T16:33:25.948Z,1006.25
2018-04-02T16:34:48.004Z,1006.28